Time;durP1;ratioP1;P1;durP2;ratioP2;P2;SDS_P1;SDS_P2;PMS_P1;PMS_P2;Temp;Humidity;BMP_temperature;BMP_pressure;BME280_temperature;BME280_humidity;BME280_pressure;Samples;Min_cycle;Max_cycle;Signal;HPM_P1;HPM_P2
2022/01/16 00:02:09;;;;;;;160.93;68.67;;;;;;;-4.74;83.37;99017.75;1735910;82;21051;-56
2022/01/16 00:04:14;;;;;;;149.07;63.25;;;;;;;-4.74;82.67;99013.78;1734796;82;20982;-57
2022/01/16 00:06:43;;;;;;;140.30;62.23;;;;;;;-4.79;83.20;99016.88;1717776;82;20979;-57
2022/01/16 00:09:11;;;;;;;177.72;71.70;;;;;;;-4.79;82.02;99014.73;1722137;82;22122;-55
2022/01/16 00:11:38;;;;;;;138.80;60.63;;;;;;;-4.83;83.89;99026.96;1737804;82;21480;-56
2022/01/16 00:14:05;;;;;;;150.27;63.00;;;;;;;-4.74;82.80;99021.72;1738032;82;21407;-56
2022/01/16 00:16:32;;;;;;;141.77;60.20;;;;;;;-4.76;83.57;99015.77;1738033;82;21037;-56
2022/01/16 00:19:00;;;;;;;163.97;62.20;;;;;;;-4.77;84.03;99008.32;1731022;82;20967;-56
2022/01/16 00:21:35;;;;;;;155.30;62.65;;;;;;;-4.75;84.14;99014.27;1734800;82;21266;-56
2022/01/16 00:24:03;;;;;;;169.70;79.20;;;;;;;-4.76;83.81;98996.75;1720477;82;37469;-56
2022/01/16 00:26:30;;;;;;;144.60;64.92;;;;;;;-4.67;82.56;98984.39;1735075;82;20985;-56
2022/01/16 00:28:57;;;;;;;142.90;60.92;;;;;;;-4.73;82.52;98991.63;1737924;82;21045;-56
2022/01/16 00:31:24;;;;;;;136.97;61.13;;;;;;;-4.84;82.86;98985.64;1738113;82;20989;-56
2022/01/16 00:33:51;;;;;;;154.95;63.30;;;;;;;-4.86;82.58;98990.27;1737986;82;21316;-56
2022/01/16 00:36:19;;;;;;;134.60;52.53;;;;;;;-4.94;82.18;99011.38;1738112;82;20992;-56
2022/01/16 00:38:49;;;;;;;142.62;60.38;;;;;;;-4.97;81.74;99007.70;1738334;82;21356;-55
2022/01/16 00:41:18;;;;;;;135.15;56.65;;;;;;;-5.12;82.54;98973.11;1737754;82;21020;-55
2022/01/16 00:43:46;;;;;;;120.30;52.93;;;;;;;-5.15;84.27;98958.04;1738233;82;21447;-56
2022/01/16 00:46:13;;;;;;;105.40;46.70;;;;;;;-5.14;84.42;98993.56;1738174;82;21754;-55
2022/01/16 00:48:40;;;;;;;127.60;53.70;;;;;;;-5.13;84.92;98995.70;1734256;82;20991;-56
2022/01/16 00:51:07;;;;;;;153.30;61.50;;;;;;;-5.08;83.58;99004.02;1731409;82;20995;-56
2022/01/16 00:53:34;;;;;;;129.57;53.13;;;;;;;-5.18;85.08;99024.44;1737763;82;21517;-56
2022/01/16 00:56:01;;;;;;;134.90;57.58;;;;;;;-5.17;85.25;99027.41;1720952;82;21006;-55
2022/01/16 00:58:28;;;;;;;141.43;59.13;;;;;;;-5.19;84.66;99013.04;1713582;82;21291;-56
2022/01/16 01:00:55;;;;;;;123.15;55.03;;;;;;;-5.20;84.48;98996.02;1734720;82;21374;-55
2022/01/16 01:03:22;;;;;;;149.07;59.50;;;;;;;-5.21;83.78;98978.02;1737949;82;21536;-55
2022/01/16 01:05:49;;;;;;;139.75;56.88;;;;;;;-5.23;84.44;98994.98;1717178;82;21412;-56
2022/01/16 01:08:17;;;;;;;134.12;54.50;;;;;;;-5.27;83.90;99002.41;1713464;83;21055;-55
2022/01/16 01:10:47;;;;;;;130.25;57.88;;;;;;;-5.35;84.13;99023.98;1713594;82;21476;-56
2022/01/16 01:13:24;;;;;;;129.80;57.62;;;;;;;-5.35;84.75;99014.25;1713584;83;21011;-55
2022/01/16 01:15:47;;;;;;;116.73;48.55;;;;;;;-5.30;84.46;98967.03;1735340;82;20992;-56
2022/01/16 01:18:14;;;;;;;100.15;45.73;;;;;;;-5.26;83.22;98969.72;1738138;82;21005;-56
2022/01/16 01:20:42;;;;;;;118.70;51.15;;;;;;;-5.32;82.51;98998.56;1724381;82;20999;-56
2022/01/16 01:23:10;;;;;;;111.97;48.05;;;;;;;-5.36;84.13;98976.92;1713595;83;21411;-56
2022/01/16 01:25:38;;;;;;;127.47;52.07;;;;;;;-5.27;83.85;98987.05;1737113;82;20988;-56
2022/01/16 01:28:05;;;;;;;104.90;46.85;;;;;;;-5.26;84.05;98993.98;1738125;82;20990;-56
2022/01/16 01:30:32;;;;;;;119.75;51.92;;;;;;;-5.21;83.06;98974.55;1737997;82;21041;-55
2022/01/16 01:32:59;;;;;;;116.35;49.58;;;;;;;-5.29;83.95;98985.06;1738476;82;20969;-55
2022/01/16 01:35:28;;;;;;;117.45;49.88;;;;;;;-5.34;84.35;98880.33;1721132;82;21396;-55
2022/01/16 01:37:55;;;;;;;126.92;58.50;;;;;;;-5.35;83.89;98841.69;1713528;82;20952;-56
2022/01/16 01:40:25;;;;;;;156.25;65.30;;;;;;;-5.37;83.87;98877.52;1720363;82;20994;-56
2022/01/16 01:51:25;;;;;;;158.95;61.60;;;;;;;-5.46;82.53;98862.12;1716682;82;20960;-55
2022/01/16 01:53:55;;;;;;;141.60;62.67;;;;;;;-5.51;83.13;98871.48;1717951;82;20965;-56
2022/01/16 01:56:22;;;;;;;116.22;53.58;;;;;;;-5.55;82.82;98894.75;1716795;82;21440;-56
2022/01/16 01:58:56;;;;;;;132.47;52.58;;;;;;;-5.58;82.15;98886.30;1713523;82;20991;-55
2022/01/16 02:01:23;;;;;;;124.87;49.10;;;;;;;-5.71;81.89;98884.91;1713430;82;21480;-55
2022/01/16 02:03:51;;;;;;;113.88;46.90;;;;;;;-5.71;82.50;98879.63;1714194;82;21499;-55
2022/01/16 02:06:23;;;;;;;120.22;54.25;;;;;;;-5.74;82.09;98906.82;1717988;82;21105;-56
2022/01/16 02:08:53;;;;;;;123.58;50.95;;;;;;;-5.80;84.38;98873.96;1718867;82;20992;-55
2022/01/16 02:11:24;;;;;;;119.05;53.52;;;;;;;-5.73;83.71;98861.77;1737800;82;21036;-55
2022/01/16 02:28:21;;;;;;;112.37;47.03;;;;;;;-5.77;82.37;98906.64;1713516;83;21405;-55
2022/01/16 02:36:00;;;;;;;105.10;45.65;;;;;;;-5.90;83.83;98905.41;1737999;82;21029;-56
2022/01/16 02:38:27;;;;;;;111.05;45.58;;;;;;;-5.89;83.89;98897.33;1738349;82;21029;-56
2022/01/16 02:41:02;;;;;;;109.85;44.65;;;;;;;-5.89;83.53;98909.70;1738077;82;21024;-56
2022/01/16 02:43:32;;;;;;;120.55;53.73;;;;;;;-5.90;84.39;98912.01;1736384;82;20989;-56
2022/01/16 02:48:44;;;;;;;104.87;44.53;;;;;;;-5.94;83.26;98893.02;1713538;82;21049;-55
2022/01/16 02:51:16;;;;;;;118.00;48.95;;;;;;;-6.02;82.84;98885.87;1728391;82;21029;-56
2022/01/16 02:53:45;;;;;;;102.02;45.38;;;;;;;-6.14;83.10;98891.06;1737975;82;21552;-57
2022/01/16 02:56:13;;;;;;;117.35;49.55;;;;;;;-6.19;83.25;98885.40;1719037;82;21432;-55
2022/01/16 02:58:40;;;;;;;118.05;44.80;;;;;;;-6.17;83.21;98877.33;1713547;82;21502;-55
2022/01/16 03:01:07;;;;;;;118.67;45.67;;;;;;;-6.19;83.62;98879.30;1728061;82;21449;-56
2022/01/16 03:03:34;;;;;;;106.00;43.08;;;;;;;-6.19;83.79;98880.13;1738045;82;20978;-56
2022/01/16 03:06:01;;;;;;;108.52;47.20;;;;;;;-6.15;83.13;98877.53;1738163;82;21274;-56
2022/01/16 03:08:28;;;;;;;112.97;44.98;;;;;;;-6.23;83.36;98868.72;1736856;82;20955;-56
2022/01/16 03:13:47;;;;;;;120.22;48.78;;;;;;;-6.25;82.99;98871.48;1713815;82;21000;-56
2022/01/16 03:16:12;;;;;;;123.90;55.00;;;;;;;-6.22;82.75;98867.73;1713319;82;21495;-56
2022/01/16 03:24:11;;;;;;;135.15;55.30;;;;;;;-6.39;82.93;98869.41;1733820;82;20964;-55
2022/01/16 03:26:37;;;;;;;131.37;53.23;;;;;;;-6.42;82.94;98865.73;1713402;82;21039;-55
2022/01/16 03:29:04;;;;;;;118.80;48.70;;;;;;;-6.40;82.65;98864.63;1713609;82;20976;-56
2022/01/16 03:31:31;;;;;;;122.65;50.55;;;;;;;-6.40;83.12;98868.58;1713201;82;21004;-55
2022/01/16 03:33:58;;;;;;;119.72;51.92;;;;;;;-6.38;83.48;98860.52;1713440;82;21125;-56
2022/01/16 03:36:25;;;;;;;116.93;49.25;;;;;;;-6.36;83.99;98859.37;1731192;82;21474;-56
2022/01/16 03:38:52;;;;;;;110.25;49.63;;;;;;;-6.33;83.78;98863.50;1738010;82;21056;-56
2022/01/16 03:41:19;;;;;;;105.12;41.60;;;;;;;-6.25;84.10;98855.66;1737965;82;20984;-56
2022/01/16 03:43:46;;;;;;;110.75;44.05;;;;;;;-6.19;82.92;98855.06;1737995;82;21468;-56
2022/01/16 03:46:12;;;;;;;113.08;48.20;;;;;;;-6.17;83.79;98855.72;1722255;82;21063;-56
2022/01/16 03:48:39;;;;;;;107.05;42.48;;;;;;;-6.13;84.08;98858.41;1717472;82;20993;-56
2022/01/16 03:51:06;;;;;;;100.50;42.62;;;;;;;-6.08;83.73;98856.13;1723474;82;21381;-55
2022/01/16 03:53:33;;;;;;;88.33;37.28;;;;;;;-6.05;83.01;98847.92;1713326;82;21506;-56
2022/01/16 03:56:00;;;;;;;93.40;42.33;;;;;;;-5.99;82.49;98843.32;1713331;82;21383;-56
2022/01/16 03:58:27;;;;;;;111.40;39.65;;;;;;;-5.98;83.68;98841.05;1713659;82;20956;-55
2022/01/16 04:00:54;;;;;;;90.80;39.25;;;;;;;-5.85;84.21;98856.42;1735060;82;20985;-56
2022/01/16 04:03:21;;;;;;;93.22;38.17;;;;;;;-5.74;83.71;98846.92;1738099;82;21009;-56
2022/01/16 04:05:48;;;;;;;102.22;40.67;;;;;;;-5.80;82.29;98847.56;1726458;82;20964;-56
2022/01/16 04:08:15;;;;;;;82.33;34.40;;;;;;;-5.88;82.14;98839.59;1713527;83;22087;-55
2022/01/16 04:10:42;;;;;;;84.13;36.15;;;;;;;-5.92;82.15;98840.90;1732992;82;21421;-56
2022/01/16 04:13:10;;;;;;;86.67;36.80;;;;;;;-6.00;82.00;98831.11;1738352;82;20953;-56
2022/01/16 04:15:37;;;;;;;95.57;41.05;;;;;;;-6.04;82.91;98832.41;1737910;82;20979;-56
2022/01/16 04:18:05;;;;;;;85.65;38.53;;;;;;;-5.96;83.94;98829.01;1738356;82;20988;-56
2022/01/16 04:20:33;;;;;;;95.42;41.00;;;;;;;-5.92;83.48;98829.52;1737894;82;21408;-56
2022/01/16 04:23:00;;;;;;;100.87;44.42;;;;;;;-5.97;82.41;98831.31;1738140;82;20946;-55
2022/01/16 04:25:27;;;;;;;117.95;48.90;;;;;;;-6.10;81.80;98829.06;1737780;82;20981;-55
2022/01/16 04:27:54;;;;;;;106.35;43.23;;;;;;;-6.17;81.83;98829.34;1738174;82;21037;-56
2022/01/16 04:30:21;;;;;;;117.62;48.28;;;;;;;-6.16;81.66;98828.84;1727790;82;20979;-56
2022/01/16 04:32:48;;;;;;;96.05;41.65;;;;;;;-6.36;82.18;98824.25;1713744;83;21460;-56
2022/01/16 04:35:14;;;;;;;108.87;50.25;;;;;;;-6.33;82.31;98828.72;1718933;82;20982;-56
2022/01/16 04:37:41;;;;;;;106.30;46.05;;;;;;;-6.41;83.52;98816.81;1738295;82;20997;-55
2022/01/16 04:40:10;;;;;;;98.10;42.40;;;;;;;-6.41;83.76;98812.86;1738037;82;20965;-55
2022/01/16 04:45:23;;;;;;;134.97;60.80;;;;;;;-6.41;83.31;98815.50;1716745;82;21464;-57
2022/01/16 04:47:50;;;;;;;226.32;92.15;;;;;;;-6.41;82.24;98806.73;1713295;83;21443;-60
2022/01/16 04:50:17;;;;;;;205.45;85.22;;;;;;;-6.45;82.01;98810.66;1722715;82;20997;-57
2022/01/16 04:52:45;;;;;;;240.95;99.67;;;;;;;-6.59;82.12;98812.02;1738188;82;20996;-57
2022/01/16 04:55:12;;;;;;;223.55;86.45;;;;;;;-6.72;82.91;98808.46;1737944;82;21012;-57
2022/01/16 04:57:39;;;;;;;110.10;46.55;;;;;;;-6.71;83.04;98815.88;1738117;82;21325;-57
2022/01/16 05:00:12;;;;;;;103.70;40.43;;;;;;;-6.67;83.74;98804.86;1724253;82;21024;-57
2022/01/16 05:02:39;;;;;;;122.92;49.93;;;;;;;-6.57;82.70;98799.53;1712184;83;21074;-57
2022/01/16 05:05:07;;;;;;;126.62;52.23;;;;;;;-6.69;81.90;98787.05;1717889;82;21007;-57
2022/01/16 05:07:34;;;;;;;98.43;39.43;;;;;;;-6.79;81.80;98786.31;1713886;82;21007;-56
2022/01/16 05:10:01;;;;;;;87.62;37.83;;;;;;;-6.86;82.56;98770.76;1722655;82;21679;-56
2022/01/16 05:12:33;;;;;;;75.75;33.90;;;;;;;-6.72;84.85;98779.46;1713679;83;20988;-56
2022/01/16 05:17:42;;;;;;;104.70;40.73;;;;;;;-6.58;84.08;98782.03;1713525;83;20987;-58
2022/01/16 05:20:10;;;;;;;95.77;39.48;;;;;;;-6.58;84.32;98783.34;1732338;82;20917;-57
2022/01/16 05:22:37;;;;;;;78.50;32.88;;;;;;;-6.50;83.84;98777.31;1738326;82;21820;-57
2022/01/16 05:25:07;;;;;;;122.58;50.73;;;;;;;-6.60;82.43;98772.13;1724615;82;21586;-58
2022/01/16 05:27:35;;;;;;;132.27;55.10;;;;;;;-6.70;82.53;98770.91;1713409;83;21069;-57
2022/01/16 05:30:04;;;;;;;127.87;50.95;;;;;;;-6.70;82.65;98769.59;1713348;82;21581;-57
2022/01/16 05:32:31;;;;;;;125.38;48.85;;;;;;;-6.69;83.02;98768.60;1713680;82;22199;-57
2022/01/16 05:34:57;;;;;;;72.32;32.50;;;;;;;-6.63;83.68;98764.05;1730323;82;21405;-56
2022/01/16 05:37:24;;;;;;;138.37;62.62;;;;;;;-6.56;84.77;98761.64;1738105;82;21025;-57
2022/01/16 05:39:51;;;;;;;87.90;40.50;;;;;;;-6.47;83.53;98761.20;1732841;82;20936;-56
2022/01/16 05:42:18;;;;;;;76.95;34.50;;;;;;;-6.41;84.04;98769.80;1713709;83;20947;-57
2022/01/16 05:44:45;;;;;;;79.37;33.85;;;;;;;-6.36;83.57;98760.95;1713426;82;20987;-57
2022/01/16 05:47:13;;;;;;;90.60;39.48;;;;;;;-6.40;83.12;98764.40;1713516;83;21516;-57
2022/01/16 05:49:41;;;;;;;97.67;38.05;;;;;;;-6.46;82.37;98763.69;1713436;82;20964;-57
2022/01/16 05:52:08;;;;;;;126.53;46.85;;;;;;;-6.49;82.32;98764.00;1713793;83;21435;-57
2022/01/16 05:54:35;;;;;;;82.60;35.25;;;;;;;-6.57;82.61;98763.45;1713243;82;21019;-57
2022/01/16 05:57:02;;;;;;;80.50;33.00;;;;;;;-6.59;82.57;98758.79;1713347;82;21435;-56
2022/01/16 05:59:29;;;;;;;142.85;61.23;;;;;;;-6.59;82.45;98756.64;1725630;82;21328;-57
2022/01/16 06:01:56;;;;;;;83.15;35.88;;;;;;;-6.58;82.37;98764.43;1737944;82;21044;-56
2022/01/16 06:04:23;;;;;;;260.10;102.40;;;;;;;-6.71;82.03;98760.02;1738173;82;21402;-57
2022/01/16 06:06:50;;;;;;;141.03;53.52;;;;;;;-6.71;81.81;98761.34;1738005;82;21021;-56
2022/01/16 06:09:16;;;;;;;91.78;36.17;;;;;;;-6.78;82.11;98760.78;1733278;82;20977;-57
2022/01/16 06:11:43;;;;;;;174.57;65.62;;;;;;;-6.77;81.99;98763.26;1713282;82;21388;-57
2022/01/16 06:14:10;;;;;;;155.32;60.78;;;;;;;-6.78;82.30;98758.14;1717713;82;20965;-57
2022/01/16 06:16:38;;;;;;;127.75;50.23;;;;;;;-6.73;83.07;98759.36;1737781;82;20953;-56
2022/01/16 06:19:04;;;;;;;170.53;64.05;;;;;;;-6.67;82.70;98755.27;1733322;82;20989;-57
2022/01/16 06:21:31;;;;;;;117.85;48.42;;;;;;;-6.77;82.08;98753.20;1737862;82;20918;-56
2022/01/16 06:23:58;;;;;;;208.93;83.80;;;;;;;-6.80;82.50;98746.94;1730963;82;21211;-57
2022/01/16 06:26:25;;;;;;;148.13;61.68;;;;;;;-6.80;83.13;98749.56;1713087;82;21467;-56
2022/01/16 06:28:52;;;;;;;114.42;47.88;;;;;;;-6.78;82.71;98748.92;1714415;82;21031;-57
2022/01/16 06:31:19;;;;;;;103.72;40.30;;;;;;;-6.71;82.89;98748.66;1737837;82;21009;-57
2022/01/16 06:33:46;;;;;;;107.52;40.38;;;;;;;-6.71;82.47;98737.62;1738326;82;20998;-57
2022/01/16 06:36:13;;;;;;;155.05;52.62;;;;;;;-6.68;82.30;98744.38;1737733;82;21376;-57
2022/01/16 06:38:40;;;;;;;106.12;41.63;;;;;;;-6.75;82.77;98745.97;1737893;82;21678;-57
2022/01/16 06:41:07;;;;;;;127.60;51.85;;;;;;;-6.67;82.49;98738.13;1720058;82;21427;-57
2022/01/16 06:43:35;;;;;;;176.42;68.50;;;;;;;-6.73;83.09;98735.63;1713638;82;21393;-57
2022/01/16 06:46:02;;;;;;;236.65;89.37;;;;;;;-6.68;82.59;98729.88;1713654;82;21335;-57
2022/01/16 06:48:30;;;;;;;240.57;87.40;;;;;;;-6.66;82.14;98730.09;1713755;82;21216;-57
2022/01/16 06:50:57;;;;;;;210.05;75.10;;;;;;;-6.66;81.79;98730.58;1713587;82;21479;-56
2022/01/16 06:53:24;;;;;;;332.50;122.20;;;;;;;-6.64;81.96;98733.89;1713882;82;21006;-56
2022/01/16 06:55:51;;;;;;;264.90;101.30;;;;;;;-6.72;81.83;98729.87;1713509;82;20928;-56
2022/01/16 06:58:18;;;;;;;412.12;142.62;;;;;;;-6.70;81.63;98729.22;1713759;82;21043;-56
2022/01/16 07:00:45;;;;;;;349.12;126.58;;;;;;;-6.72;81.57;98719.32;1713603;82;21344;-56
2022/01/16 07:03:14;;;;;;;278.23;110.45;;;;;;;-6.75;82.33;98721.78;1714199;83;21027;-56
2022/01/16 07:05:43;;;;;;;394.95;143.93;;;;;;;-6.69;81.79;98715.05;1737753;82;20993;-56
2022/01/16 07:08:10;;;;;;;254.35;100.30;;;;;;;-6.66;81.54;98716.91;1737989;82;20958;-56
2022/01/16 07:10:37;;;;;;;278.20;103.42;;;;;;;-6.61;81.57;98709.34;1729930;82;21021;-55
2022/01/16 07:13:04;;;;;;;247.27;93.22;;;;;;;-6.59;82.13;98710.02;1738149;82;22282;-56
2022/01/16 07:15:31;;;;;;;150.27;63.78;;;;;;;-6.51;81.82;98711.06;1737935;82;21495;-56
2022/01/16 07:17:58;;;;;;;333.10;114.65;;;;;;;-6.48;81.36;98708.95;1738233;82;20965;-56
2022/01/16 07:20:25;;;;;;;193.82;71.47;;;;;;;-6.63;81.40;98698.63;1737902;82;21012;-56
2022/01/16 07:22:52;;;;;;;205.27;81.65;;;;;;;-6.70;82.30;98694.95;1738332;82;21397;-56
2022/01/16 07:25:18;;;;;;;314.45;106.72;;;;;;;-6.62;82.40;98698.96;1737898;82;21385;-57
2022/01/16 07:27:45;;;;;;;266.73;96.65;;;;;;;-6.52;82.42;98703.64;1737926;82;20989;-56
2022/01/16 07:30:12;;;;;;;311.45;110.60;;;;;;;-6.42;81.88;98695.13;1729519;82;21046;-56
2022/01/16 07:32:39;;;;;;;265.85;101.20;;;;;;;-6.42;82.41;98691.66;1713639;83;20968;-56
2022/01/16 07:35:07;;;;;;;212.88;86.72;;;;;;;-6.35;81.79;98691.38;1713378;82;21379;-56
2022/01/16 07:37:34;;;;;;;254.10;98.42;;;;;;;-6.41;81.79;98690.22;1713709;83;21623;-56
2022/01/16 07:40:01;;;;;;;386.95;134.25;;;;;;;-6.31;82.79;98695.38;1730882;82;21434;-57
2022/01/16 07:42:28;;;;;;;227.90;89.75;;;;;;;-6.19;82.35;98700.71;1738226;82;20983;-56
2022/01/16 07:44:55;;;;;;;195.60;76.15;;;;;;;-6.05;82.41;98692.72;1738164;82;21057;-57
2022/01/16 07:47:22;;;;;;;373.77;141.53;;;;;;;-5.88;82.78;98683.84;1737902;82;20950;-56
2022/01/16 07:49:49;;;;;;;286.77;99.17;;;;;;;-5.72;82.22;98689.19;1738228;82;21350;-56
2022/01/16 07:52:15;;;;;;;310.75;119.17;;;;;;;-5.64;82.66;98683.58;1737991;82;20988;-57
2022/01/16 07:54:42;;;;;;;119.42;46.00;;;;;;;-5.47;82.66;98683.95;1728727;82;21035;-57
2022/01/16 07:57:09;;;;;;;209.85;75.67;;;;;;;-5.34;82.30;98687.46;1713460;83;21392;-57
2022/01/16 07:59:36;;;;;;;252.20;92.82;;;;;;;-5.29;82.31;98691.28;1718482;82;20987;-56
2022/01/16 08:02:04;;;;;;;287.05;106.52;;;;;;;-5.17;82.22;98681.21;1737008;82;21369;-57
2022/01/16 08:04:31;;;;;;;244.75;93.82;;;;;;;-5.07;82.14;98677.09;1733316;82;20938;-57
2022/01/16 08:06:58;;;;;;;206.05;84.47;;;;;;;-4.98;81.94;98678.73;1737973;82;21013;-56
2022/01/16 08:09:25;;;;;;;224.05;86.12;;;;;;;-4.96;81.76;98663.53;1738071;82;21509;-56
2022/01/16 08:11:52;;;;;;;163.52;65.57;;;;;;;-4.92;81.50;98667.02;1737754;82;21576;-56
2022/01/16 08:14:19;;;;;;;145.95;59.53;;;;;;;-4.82;81.70;98666.34;1727837;82;21369;-57
2022/01/16 08:16:45;;;;;;;157.37;66.12;;;;;;;-4.70;81.33;98664.21;1737755;82;21508;-57
2022/01/16 08:19:13;;;;;;;127.82;56.98;;;;;;;-4.65;81.29;98668.48;1738262;82;21425;-56
2022/01/16 08:21:39;;;;;;;111.60;47.95;;;;;;;-4.61;81.72;98651.80;1737929;82;21433;-56
2022/01/16 08:24:06;;;;;;;125.82;55.33;;;;;;;-4.49;81.30;98640.36;1737994;82;22560;-56
2022/01/16 08:26:33;;;;;;;110.72;50.90;;;;;;;-4.45;81.59;98640.34;1737852;82;21665;-56
2022/01/16 08:29:00;;;;;;;101.60;43.28;;;;;;;-4.40;81.28;98639.34;1731051;82;20944;-57
2022/01/16 08:31:27;;;;;;;94.87;38.05;;;;;;;-4.24;82.01;98639.80;1713288;82;21416;-57
2022/01/16 08:33:54;;;;;;;159.55;59.60;;;;;;;-4.17;81.03;98622.25;1713658;82;20995;-56
2022/01/16 08:36:21;;;;;;;87.92;36.65;;;;;;;-4.00;80.82;98627.80;1713379;82;20979;-56
2022/01/16 08:38:48;;;;;;;90.97;38.67;;;;;;;-3.81;81.14;98626.55;1713841;82;21417;-56
2022/01/16 08:41:15;;;;;;;73.28;34.18;;;;;;;-3.66;80.31;98613.41;1718529;82;20979;-56
2022/01/16 08:43:42;;;;;;;75.32;31.55;;;;;;;-3.49;80.56;98608.33;1713547;82;21019;-56
2022/01/16 08:46:09;;;;;;;85.67;38.38;;;;;;;-3.42;80.46;98602.16;1737793;82;21029;-56
2022/01/16 08:48:36;;;;;;;96.50;39.98;;;;;;;-3.33;80.08;98592.78;1738398;82;21017;-56
2022/01/16 08:51:03;;;;;;;156.52;68.22;;;;;;;-3.25;79.99;98583.45;1714902;82;21429;-57
2022/01/16 08:53:30;;;;;;;85.00;36.65;;;;;;;-3.10;80.10;98583.00;1715783;82;20944;-56
2022/01/16 08:55:58;;;;;;;131.60;51.53;;;;;;;-2.99;79.08;98582.59;1738025;82;20997;-56
2022/01/16 08:58:26;;;;;;;160.25;61.23;;;;;;;-2.81;79.21;98578.78;1737085;82;21048;-56
2022/01/16 09:00:53;;;;;;;70.45;26.45;;;;;;;-2.70;78.96;98570.38;1713340;82;21030;-57
2022/01/16 09:03:21;;;;;;;96.67;43.90;;;;;;;-2.59;78.98;98572.56;1713753;82;21312;-56
2022/01/16 09:05:49;;;;;;;66.62;29.35;;;;;;;-2.47;78.14;98567.14;1713196;82;21019;-56
2022/01/16 09:08:16;;;;;;;47.48;21.12;;;;;;;-2.35;76.09;98564.34;1713790;83;20979;-57
2022/01/16 09:10:43;;;;;;;47.60;20.55;;;;;;;-2.17;76.34;98563.13;1713403;82;21439;-56
2022/01/16 09:13:12;;;;;;;61.08;24.95;;;;;;;-2.00;75.83;98553.44;1713544;83;21427;-57
2022/01/16 09:15:39;;;;;;;41.63;16.57;;;;;;;-1.79;75.18;98544.70;1737440;82;21476;-57
2022/01/16 09:18:06;;;;;;;54.00;23.83;;;;;;;-1.64;73.66;98551.27;1738130;82;21057;-56
2022/01/16 09:20:33;;;;;;;60.40;31.07;;;;;;;-1.64;68.78;98549.94;1714870;82;21023;-56
2022/01/16 09:23:01;;;;;;;69.67;30.05;;;;;;;-1.50;72.56;98541.61;1713666;83;21003;-57
2022/01/16 09:25:28;;;;;;;47.88;21.45;;;;;;;-1.41;73.29;98537.80;1724589;82;21048;-57
2022/01/16 09:27:54;;;;;;;44.88;19.15;;;;;;;-1.30;73.84;98535.95;1737931;82;21505;-57
2022/01/16 09:30:22;;;;;;;45.80;21.10;;;;;;;-1.21;73.78;98528.16;1728632;82;21045;-56
2022/01/16 09:32:49;;;;;;;38.08;16.45;;;;;;;-1.01;71.45;98519.53;1737937;82;21025;-56
2022/01/16 09:35:16;;;;;;;37.03;17.17;;;;;;;-0.84;70.59;98523.55;1737898;82;20996;-57
2022/01/16 09:37:43;;;;;;;37.83;15.78;;;;;;;-0.65;69.19;98514.86;1738190;82;20988;-57
2022/01/16 09:40:12;;;;;;;48.78;22.52;;;;;;;-0.45;67.34;98516.28;1737985;82;22112;-57
2022/01/16 09:42:39;;;;;;;67.78;26.77;;;;;;;-0.37;68.08;98512.64;1737844;82;20973;-56
2022/01/16 09:45:10;;;;;;;41.37;19.62;;;;;;;-0.31;68.01;98509.20;1719669;82;20992;-57
2022/01/16 09:47:37;;;;;;;112.83;43.02;;;;;;;-0.22;68.03;98504.01;1713274;83;20999;-57
2022/01/16 09:50:06;;;;;;;143.25;58.90;;;;;;;-0.12;67.28;98495.12;1719055;82;21142;-57
2022/01/16 09:52:37;;;;;;;100.00;43.53;;;;;;;0.01;67.48;98490.88;1713594;83;21445;-57
2022/01/16 09:55:06;;;;;;;104.65;49.18;;;;;;;0.10;68.40;98484.34;1713349;82;21559;-57
2022/01/16 09:57:33;;;;;;;81.82;38.40;;;;;;;0.21;68.36;98477.91;1713595;83;21459;-57
2022/01/16 10:00:00;;;;;;;49.90;23.35;;;;;;;0.34;67.82;98474.42;1713445;82;20975;-57
2022/01/16 10:02:27;;;;;;;89.90;37.53;;;;;;;0.38;67.05;98469.01;1713514;82;21015;-57
2022/01/16 10:04:54;;;;;;;59.10;26.75;;;;;;;0.51;67.19;98458.37;1724192;82;20992;-57
2022/01/16 10:07:21;;;;;;;45.95;21.23;;;;;;;0.63;63.63;98454.56;1737985;82;21437;-56
2022/01/16 10:10:10;;;;;;;39.00;21.07;;;;;;;0.72;62.52;98452.00;1737970;82;21001;-56
2022/01/16 10:12:41;;;;;;;47.35;22.30;;;;;;;0.89;66.20;98447.05;1737949;82;21378;-56
2022/01/16 10:15:24;;;;;;;42.60;22.52;;;;;;;1.00;64.85;98437.08;1733594;82;26812;-57
2022/01/16 10:17:54;;;;;;;60.45;25.52;;;;;;;1.10;60.10;98429.45;1712525;83;21298;-56
2022/01/16 10:20:22;;;;;;;37.03;17.42;;;;;;;1.19;56.27;98433.23;1713332;82;21007;-56
2022/01/16 10:22:57;;;;;;;49.35;17.40;;;;;;;1.35;63.81;98426.92;1713430;83;20971;-56
2022/01/16 10:25:41;;;;;;;63.75;26.37;;;;;;;1.52;63.68;98423.27;1725940;82;20989;-56
2022/01/16 10:28:18;;;;;;;31.02;15.03;;;;;;;1.60;57.54;98423.55;1738002;82;20973;-57
2022/01/16 10:30:48;;;;;;;32.50;14.98;;;;;;;1.74;56.23;98417.64;1737305;82;21673;-57
2022/01/16 10:33:19;;;;;;;41.83;17.55;;;;;;;1.89;52.87;98420.85;1737781;82;21457;-57
2022/01/16 10:35:47;;;;;;;33.67;15.10;;;;;;;2.05;59.70;98408.81;1732104;82;21053;-57
2022/01/16 10:38:20;;;;;;;40.33;18.30;;;;;;;2.18;58.04;98412.75;1738010;82;20986;-57
2022/01/16 10:40:50;;;;;;;34.92;16.45;;;;;;;2.28;60.14;98402.38;1727197;82;20992;-56
2022/01/16 10:43:38;;;;;;;42.30;17.62;;;;;;;2.41;61.63;98401.48;1713387;82;22120;-57
2022/01/16 10:46:06;;;;;;;44.13;17.02;;;;;;;2.51;60.02;98401.28;1736493;82;21461;-57
2022/01/16 10:48:33;;;;;;;46.75;16.60;;;;;;;2.62;59.10;98391.72;1738119;82;21480;-57
2022/01/16 10:51:01;;;;;;;26.17;12.88;;;;;;;2.73;57.90;98386.16;1737871;82;20982;-57
2022/01/16 10:53:30;;;;;;;33.20;14.85;;;;;;;2.83;59.51;98381.14;1736515;82;20973;-57
2022/01/16 10:56:01;;;;;;;48.15;17.10;;;;;;;2.95;58.14;98370.52;1719936;82;22047;-56
2022/01/16 10:58:46;;;;;;;71.62;22.13;;;;;;;3.06;56.86;98375.13;1736277;82;21257;-57
2022/01/16 11:01:16;;;;;;;44.50;16.55;;;;;;;3.12;57.66;98364.87;1728570;82;21548;-57
2022/01/16 11:03:48;;;;;;;40.38;17.07;;;;;;;3.19;57.86;98356.77;1733489;82;21046;-56
2022/01/16 11:06:17;;;;;;;42.75;15.13;;;;;;;3.22;58.82;98355.78;1728914;82;21012;-56
2022/01/16 11:08:58;;;;;;;28.07;13.70;;;;;;;3.30;57.27;98354.66;1733864;82;21327;-57
2022/01/16 11:11:25;;;;;;;34.78;12.55;;;;;;;3.38;56.42;98341.78;1713251;82;21007;-56
2022/01/16 11:13:54;;;;;;;22.17;11.75;;;;;;;3.43;55.25;98338.44;1713560;82;20960;-56
2022/01/16 11:16:21;;;;;;;57.27;27.52;;;;;;;3.53;53.18;98334.70;1713419;82;20959;-56
2022/01/16 11:18:49;;;;;;;37.45;15.03;;;;;;;3.60;56.45;98334.61;1713736;82;21026;-56
2022/01/16 11:21:31;;;;;;;110.28;40.67;;;;;;;3.68;54.18;98329.75;1732980;82;21420;-56
2022/01/16 11:23:49;;;;;;;54.40;23.18;;;;;;;3.79;56.64;98325.99;1735724;82;21465;-57
2022/01/16 11:26:17;;;;;;;52.25;20.23;;;;;;;3.86;56.63;98322.17;1737858;82;20989;-56
2022/01/16 11:28:44;;;;;;;37.67;14.73;;;;;;;3.92;48.68;98320.41;1738442;82;21017;-56
2022/01/16 11:31:12;;;;;;;32.50;15.13;;;;;;;4.01;51.93;98318.22;1738101;82;21017;-56
2022/01/16 11:33:40;;;;;;;47.65;15.48;;;;;;;4.08;53.55;98318.94;1738405;82;21409;-55
2022/01/16 11:36:15;;;;;;;64.72;25.27;;;;;;;4.11;54.97;98322.52;1737892;82;21021;-56
2022/01/16 11:39:00;;;;;;;68.00;23.32;;;;;;;4.20;54.43;98317.92;1738078;82;21394;-56
2022/01/16 11:41:42;;;;;;;33.10;13.50;;;;;;;4.29;52.93;98319.75;1716619;82;20976;-56
2022/01/16 11:44:08;;;;;;;47.20;21.82;;;;;;;4.32;52.48;98315.77;1708823;82;21003;-56
2022/01/16 11:46:40;;;;;;;;;;;;;;;4.40;53.30;98316.25;1715985;82;21526;-56
2022/01/16 11:49:08;;;;;;;38.70;18.10;;;;;;;4.53;52.03;98308.50;1713359;82;20163;-56
2022/01/16 11:51:40;;;;;;;66.70;23.05;;;;;;;4.60;50.34;98310.52;1713152;82;20991;-56
2022/01/16 11:54:24;;;;;;;132.57;51.02;;;;;;;4.65;51.59;98307.96;1713424;82;21529;-57
2022/01/16 11:56:57;;;;;;;112.90;45.15;;;;;;;4.72;52.88;98307.32;1674788;83;20980;-56
2022/01/16 11:59:30;;;;;;;63.17;24.15;;;;;;;4.78;54.29;98306.36;1701382;82;21472;-56
2022/01/16 12:02:09;;;;;;;42.17;18.60;;;;;;;4.83;52.10;98311.56;1713020;82;20967;-56
2022/01/16 12:04:41;;;;;;;332.48;125.33;;;;;;;4.93;50.02;98307.22;1713411;82;21526;-56